sensor_id;sensor_type;location;lat;lon;timestamp;P1;durP1;ratioP1;P2;durP2;ratioP2
60239;SDS011;46102;39.012;-7.064;2022-09-21T00:01:02;1.83;;;1.70;;
60239;SDS011;46102;39.012;-7.064;2022-09-21T00:03:08;2.65;;;2.20;;
60239;SDS011;46102;39.012;-7.064;2022-09-21T00:05:08;1.95;;;1.85;;
60239;SDS011;46102;39.012;-7.064;2022-09-21T00:07:09;3.05;;;1.73;;
60239;SDS011;46102;39.012;-7.064;2022-09-21T00:09:10;5.00;;;1.95;;
60239;SDS011;46102;39.012;-7.064;2022-09-21T00:11:12;2.13;;;1.92;;
60239;SDS011;46102;39.012;-7.064;2022-09-21T00:13:14;2.05;;;1.40;;
60239;SDS011;46102;39.012;-7.064;2022-09-21T00:15:16;3.00;;;2.05;;
60239;SDS011;46102;39.012;-7.064;2022-09-21T00:17:17;2.70;;;1.92;;
60239;SDS011;46102;39.012;-7.064;2022-09-21T00:19:18;2.10;;;1.80;;
60239;SDS011;46102;39.012;-7.064;2022-09-21T00:21:18;1.70;;;1.60;;
60239;SDS011;46102;39.012;-7.064;2022-09-21T00:23:20;2.22;;;1.98;;
60239;SDS011;46102;39.012;-7.064;2022-09-21T00:25:21;3.97;;;1.88;;
60239;SDS011;46102;39.012;-7.064;2022-09-21T00:27:22;1.55;;;1.45;;
60239;SDS011;46102;39.012;-7.064;2022-09-21T00:29:29;5.97;;;1.90;;
60239;SDS011;46102;39.012;-7.064;2022-09-21T00:31:30;1.90;;;1.80;;
60239;SDS011;46102;39.012;-7.064;2022-09-21T00:33:32;5.10;;;1.90;;
60239;SDS011;46102;39.012;-7.064;2022-09-21T00:35:33;3.78;;;2.10;;
60239;SDS011;46102;39.012;-7.064;2022-09-21T00:37:34;2.30;;;2.20;;
60239;SDS011;46102;39.012;-7.064;2022-09-21T00:39:35;4.43;;;2.25;;
60239;SDS011;46102;39.012;-7.064;2022-09-21T00:41:36;2.20;;;2.00;;
60239;SDS011;46102;39.012;-7.064;2022-09-21T00:43:39;2.25;;;2.05;;
60239;SDS011;46102;39.012;-7.064;2022-09-21T00:45:44;3.45;;;1.95;;
60239;SDS011;46102;39.012;-7.064;2022-09-21T00:47:49;5.30;;;2.70;;
60239;SDS011;46102;39.012;-7.064;2022-09-21T00:49:52;2.30;;;2.15;;
60239;SDS011;46102;39.012;-7.064;2022-09-21T00:53:59;1.83;;;1.73;;
60239;SDS011;46102;39.012;-7.064;2022-09-21T00:56:03;7.05;;;2.60;;
60239;SDS011;46102;39.012;-7.064;2022-09-21T00:58:06;2.47;;;2.33;;
60239;SDS011;46102;39.012;-7.064;2022-09-21T01:00:11;2.10;;;2.00;;
60239;SDS011;46102;39.012;-7.064;2022-09-21T01:02:12;3.00;;;2.38;;
60239;SDS011;46102;39.012;-7.064;2022-09-21T01:04:14;3.83;;;2.38;;
60239;SDS011;46102;39.012;-7.064;2022-09-21T01:06:18;4.32;;;1.92;;
60239;SDS011;46102;39.012;-7.064;2022-09-21T01:08:20;2.30;;;2.10;;
60239;SDS011;46102;39.012;-7.064;2022-09-21T01:10:25;3.53;;;2.50;;
60239;SDS011;46102;39.012;-7.064;2022-09-21T01:15:03;3.45;;;2.28;;
60239;SDS011;46102;39.012;-7.064;2022-09-21T01:19:47;4.45;;;2.60;;
60239;SDS011;46102;39.012;-7.064;2022-09-21T01:24:40;3.00;;;2.70;;
60239;SDS011;46102;39.012;-7.064;2022-09-21T01:31:20;2.67;;;1.98;;
60239;SDS011;46102;39.012;-7.064;2022-09-21T01:33:29;3.95;;;2.00;;
60239;SDS011;46102;39.012;-7.064;2022-09-21T01:35:38;2.70;;;2.50;;
60239;SDS011;46102;39.012;-7.064;2022-09-21T01:37:45;6.40;;;2.33;;
60239;SDS011;46102;39.012;-7.064;2022-09-21T01:39:52;3.95;;;2.15;;
60239;SDS011;46102;39.012;-7.064;2022-09-21T01:41:57;4.40;;;2.00;;
60239;SDS011;46102;39.012;-7.064;2022-09-21T01:44:05;2.42;;;2.15;;
60239;SDS011;46102;39.012;-7.064;2022-09-21T01:46:10;4.32;;;2.60;;
60239;SDS011;46102;39.012;-7.064;2022-09-21T01:48:14;2.60;;;2.00;;
60239;SDS011;46102;39.012;-7.064;2022-09-21T01:50:17;10.32;;;1.90;;
60239;SDS011;46102;39.012;-7.064;2022-09-21T01:52:21;5.60;;;1.17;;
60239;SDS011;46102;39.012;-7.064;2022-09-21T01:54:28;2.83;;;1.17;;
60239;SDS011;46102;39.012;-7.064;2022-09-21T01:56:46;1.45;;;1.05;;
60239;SDS011;46102;39.012;-7.064;2022-09-21T02:01:22;6.63;;;1.30;;
60239;SDS011;46102;39.012;-7.064;2022-09-21T02:03:32;4.53;;;1.50;;
60239;SDS011;46102;39.012;-7.064;2022-09-21T02:05:38;2.13;;;2.03;;
60239;SDS011;46102;39.012;-7.064;2022-09-21T02:07:40;3.78;;;1.58;;
60239;SDS011;46102;39.012;-7.064;2022-09-21T02:09:41;4.85;;;1.40;;
60239;SDS011;46102;39.012;-7.064;2022-09-21T02:11:42;6.65;;;1.65;;
60239;SDS011;46102;39.012;-7.064;2022-09-21T02:13:45;1.90;;;1.70;;
60239;SDS011;46102;39.012;-7.064;2022-09-21T02:16:02;3.10;;;1.60;;
60239;SDS011;46102;39.012;-7.064;2022-09-21T02:18:15;5.03;;;1.53;;
60239;SDS011;46102;39.012;-7.064;2022-09-21T02:20:39;3.28;;;1.67;;
60239;SDS011;46102;39.012;-7.064;2022-09-21T02:24:56;5.10;;;1.90;;
60239;SDS011;46102;39.012;-7.064;2022-09-21T02:32:03;3.00;;;1.80;;
60239;SDS011;46102;39.012;-7.064;2022-09-21T02:38:45;11.23;;;2.50;;
60239;SDS011;46102;39.012;-7.064;2022-09-21T02:40:51;2.88;;;1.92;;
60239;SDS011;46102;39.012;-7.064;2022-09-21T02:43:02;3.45;;;1.92;;
60239;SDS011;46102;39.012;-7.064;2022-09-21T02:45:10;5.20;;;2.38;;
60239;SDS011;46102;39.012;-7.064;2022-09-21T02:47:17;6.05;;;2.35;;
60239;SDS011;46102;39.012;-7.064;2022-09-21T02:49:25;2.60;;;2.30;;
60239;SDS011;46102;39.012;-7.064;2022-09-21T02:51:31;3.50;;;2.08;;
60239;SDS011;46102;39.012;-7.064;2022-09-21T02:53:37;3.03;;;2.70;;
60239;SDS011;46102;39.012;-7.064;2022-09-21T02:55:40;7.68;;;2.83;;
60239;SDS011;46102;39.012;-7.064;2022-09-21T02:57:44;3.47;;;2.55;;
60239;SDS011;46102;39.012;-7.064;2022-09-21T02:59:47;5.15;;;2.30;;
60239;SDS011;46102;39.012;-7.064;2022-09-21T03:01:49;6.72;;;2.47;;
60239;SDS011;46102;39.012;-7.064;2022-09-21T03:03:51;4.72;;;2.67;;
60239;SDS011;46102;39.012;-7.064;2022-09-21T03:05:53;2.83;;;2.33;;
60239;SDS011;46102;39.012;-7.064;2022-09-21T03:07:55;9.55;;;2.65;;
60239;SDS011;46102;39.012;-7.064;2022-09-21T03:09:56;13.88;;;4.03;;
60239;SDS011;46102;39.012;-7.064;2022-09-21T03:11:57;6.53;;;3.10;;
60239;SDS011;46102;39.012;-7.064;2022-09-21T03:13:58;4.88;;;3.03;;
60239;SDS011;46102;39.012;-7.064;2022-09-21T03:16:03;5.80;;;2.42;;
60239;SDS011;46102;39.012;-7.064;2022-09-21T03:18:06;4.32;;;2.83;;
60239;SDS011;46102;39.012;-7.064;2022-09-21T03:20:10;3.83;;;2.28;;
60239;SDS011;46102;39.012;-7.064;2022-09-21T03:22:11;3.22;;;2.25;;
60239;SDS011;46102;39.012;-7.064;2022-09-21T03:24:12;5.22;;;2.90;;
60239;SDS011;46102;39.012;-7.064;2022-09-21T03:26:12;5.68;;;2.42;;
60239;SDS011;46102;39.012;-7.064;2022-09-21T03:28:13;3.38;;;2.40;;
60239;SDS011;46102;39.012;-7.064;2022-09-21T03:30:15;3.47;;;2.22;;
60239;SDS011;46102;39.012;-7.064;2022-09-21T03:32:16;10.77;;;3.40;;
60239;SDS011;46102;39.012;-7.064;2022-09-21T03:34:17;9.02;;;2.42;;
60239;SDS011;46102;39.012;-7.064;2022-09-21T03:36:17;2.45;;;2.25;;
60239;SDS011;46102;39.012;-7.064;2022-09-21T03:38:19;3.95;;;2.40;;
60239;SDS011;46102;39.012;-7.064;2022-09-21T03:40:20;4.20;;;2.88;;
60239;SDS011;46102;39.012;-7.064;2022-09-21T03:42:22;3.75;;;2.20;;
60239;SDS011;46102;39.012;-7.064;2022-09-21T03:44:23;5.88;;;2.90;;
60239;SDS011;46102;39.012;-7.064;2022-09-21T03:46:25;4.90;;;2.70;;
60239;SDS011;46102;39.012;-7.064;2022-09-21T03:48:25;5.72;;;3.10;;
60239;SDS011;46102;39.012;-7.064;2022-09-21T03:50:26;7.38;;;3.05;;
60239;SDS011;46102;39.012;-7.064;2022-09-21T03:52:28;8.85;;;2.47;;
60239;SDS011;46102;39.012;-7.064;2022-09-21T03:54:29;6.35;;;3.10;;
60239;SDS011;46102;39.012;-7.064;2022-09-21T03:56:29;6.45;;;3.20;;
60239;SDS011;46102;39.012;-7.064;2022-09-21T03:58:30;7.45;;;2.97;;
60239;SDS011;46102;39.012;-7.064;2022-09-21T04:00:31;9.75;;;3.08;;
60239;SDS011;46102;39.012;-7.064;2022-09-21T04:02:32;5.22;;;2.40;;
60239;SDS011;46102;39.012;-7.064;2022-09-21T04:04:33;8.75;;;3.05;;
60239;SDS011;46102;39.012;-7.064;2022-09-21T04:06:34;7.57;;;3.22;;
60239;SDS011;46102;39.012;-7.064;2022-09-21T04:08:35;5.05;;;3.58;;
60239;SDS011;46102;39.012;-7.064;2022-09-21T04:10:35;6.40;;;3.63;;
60239;SDS011;46102;39.012;-7.064;2022-09-21T04:12:40;4.78;;;3.58;;
60239;SDS011;46102;39.012;-7.064;2022-09-21T04:14:42;7.75;;;4.75;;
60239;SDS011;46102;39.012;-7.064;2022-09-21T04:16:43;8.40;;;5.43;;
60239;SDS011;46102;39.012;-7.064;2022-09-21T04:18:44;8.98;;;4.75;;
60239;SDS011;46102;39.012;-7.064;2022-09-21T04:20:47;9.85;;;4.50;;
60239;SDS011;46102;39.012;-7.064;2022-09-21T04:22:48;6.18;;;3.92;;
60239;SDS011;46102;39.012;-7.064;2022-09-21T04:24:50;13.65;;;4.63;;
60239;SDS011;46102;39.012;-7.064;2022-09-21T04:26:51;7.30;;;3.45;;
60239;SDS011;46102;39.012;-7.064;2022-09-21T04:28:52;4.05;;;3.42;;
60239;SDS011;46102;39.012;-7.064;2022-09-21T04:30:54;5.22;;;3.67;;
60239;SDS011;46102;39.012;-7.064;2022-09-21T04:32:55;4.13;;;3.53;;
60239;SDS011;46102;39.012;-7.064;2022-09-21T04:34:55;5.25;;;3.20;;
60239;SDS011;46102;39.012;-7.064;2022-09-21T04:36:57;4.90;;;3.10;;
60239;SDS011;46102;39.012;-7.064;2022-09-21T04:39:01;4.63;;;3.13;;
60239;SDS011;46102;39.012;-7.064;2022-09-21T04:41:01;5.75;;;3.30;;
60239;SDS011;46102;39.012;-7.064;2022-09-21T04:43:03;2.92;;;2.60;;
60239;SDS011;46102;39.012;-7.064;2022-09-21T04:45:04;6.28;;;2.53;;
60239;SDS011;46102;39.012;-7.064;2022-09-21T04:47:05;6.00;;;3.35;;
60239;SDS011;46102;39.012;-7.064;2022-09-21T04:49:05;7.97;;;3.45;;
60239;SDS011;46102;39.012;-7.064;2022-09-21T04:51:08;3.85;;;3.00;;
60239;SDS011;46102;39.012;-7.064;2022-09-21T04:53:09;6.63;;;3.05;;
60239;SDS011;46102;39.012;-7.064;2022-09-21T04:55:10;3.50;;;3.20;;
60239;SDS011;46102;39.012;-7.064;2022-09-21T04:57:11;5.78;;;2.80;;
60239;SDS011;46102;39.012;-7.064;2022-09-21T04:59:12;6.68;;;3.22;;
60239;SDS011;46102;39.012;-7.064;2022-09-21T05:01:13;3.58;;;3.17;;
60239;SDS011;46102;39.012;-7.064;2022-09-21T05:03:14;3.60;;;2.47;;
60239;SDS011;46102;39.012;-7.064;2022-09-21T05:05:15;5.07;;;3.05;;
60239;SDS011;46102;39.012;-7.064;2022-09-21T05:07:16;3.80;;;2.53;;
60239;SDS011;46102;39.012;-7.064;2022-09-21T05:09:17;3.40;;;2.45;;
60239;SDS011;46102;39.012;-7.064;2022-09-21T05:11:36;5.63;;;2.45;;
60239;SDS011;46102;39.012;-7.064;2022-09-21T05:13:37;2.88;;;2.40;;
60239;SDS011;46102;39.012;-7.064;2022-09-21T05:15:39;6.05;;;2.47;;
60239;SDS011;46102;39.012;-7.064;2022-09-21T05:17:40;6.05;;;3.30;;
60239;SDS011;46102;39.012;-7.064;2022-09-21T05:19:41;3.33;;;2.33;;
60239;SDS011;46102;39.012;-7.064;2022-09-21T05:21:42;2.95;;;2.75;;
60239;SDS011;46102;39.012;-7.064;2022-09-21T05:23:42;9.18;;;3.30;;
60239;SDS011;46102;39.012;-7.064;2022-09-21T05:25:43;4.30;;;2.80;;
60239;SDS011;46102;39.012;-7.064;2022-09-21T05:27:44;8.38;;;3.17;;
60239;SDS011;46102;39.012;-7.064;2022-09-21T05:29:45;6.53;;;2.60;;
60239;SDS011;46102;39.012;-7.064;2022-09-21T05:31:54;3.15;;;2.47;;
60239;SDS011;46102;39.012;-7.064;2022-09-21T05:34:16;5.03;;;2.83;;
60239;SDS011;46102;39.012;-7.064;2022-09-21T05:38:31;4.82;;;2.70;;
60239;SDS011;46102;39.012;-7.064;2022-09-21T05:40:32;5.05;;;2.50;;
60239;SDS011;46102;39.012;-7.064;2022-09-21T05:42:34;3.25;;;2.50;;
60239;SDS011;46102;39.012;-7.064;2022-09-21T05:44:35;5.75;;;2.88;;
60239;SDS011;46102;39.012;-7.064;2022-09-21T05:49:04;3.03;;;2.40;;
60239;SDS011;46102;39.012;-7.064;2022-09-21T05:58:17;3.10;;;2.63;;
60239;SDS011;46102;39.012;-7.064;2022-09-21T06:00:23;4.68;;;2.83;;
60239;SDS011;46102;39.012;-7.064;2022-09-21T06:02:40;4.32;;;2.40;;
60239;SDS011;46102;39.012;-7.064;2022-09-21T06:04:50;3.80;;;2.72;;
60239;SDS011;46102;39.012;-7.064;2022-09-21T06:06:53;3.50;;;2.22;;
60239;SDS011;46102;39.012;-7.064;2022-09-21T06:08:54;4.15;;;2.90;;
60239;SDS011;46102;39.012;-7.064;2022-09-21T06:10:55;4.40;;;2.15;;
60239;SDS011;46102;39.012;-7.064;2022-09-21T06:12:56;5.22;;;2.38;;
60239;SDS011;46102;39.012;-7.064;2022-09-21T06:14:57;7.47;;;3.00;;
60239;SDS011;46102;39.012;-7.064;2022-09-21T06:16:58;6.15;;;2.78;;
60239;SDS011;46102;39.012;-7.064;2022-09-21T06:18:59;2.78;;;2.58;;
60239;SDS011;46102;39.012;-7.064;2022-09-21T06:20:59;4.13;;;2.15;;
60239;SDS011;46102;39.012;-7.064;2022-09-21T06:23:01;3.85;;;2.67;;
60239;SDS011;46102;39.012;-7.064;2022-09-21T06:25:06;5.63;;;3.10;;
60239;SDS011;46102;39.012;-7.064;2022-09-21T06:27:07;4.60;;;2.42;;
60239;SDS011;46102;39.012;-7.064;2022-09-21T06:29:07;4.90;;;2.35;;
60239;SDS011;46102;39.012;-7.064;2022-09-21T06:31:08;3.22;;;2.45;;
60239;SDS011;46102;39.012;-7.064;2022-09-21T06:33:09;4.53;;;2.17;;
60239;SDS011;46102;39.012;-7.064;2022-09-21T06:35:10;8.57;;;2.35;;
60239;SDS011;46102;39.012;-7.064;2022-09-21T06:37:11;2.90;;;2.60;;
60239;SDS011;46102;39.012;-7.064;2022-09-21T06:39:11;6.72;;;2.80;;
60239;SDS011;46102;39.012;-7.064;2022-09-21T06:41:12;2.42;;;2.22;;
60239;SDS011;46102;39.012;-7.064;2022-09-21T06:43:13;2.53;;;2.05;;
60239;SDS011;46102;39.012;-7.064;2022-09-21T06:45:14;3.22;;;2.03;;
60239;SDS011;46102;39.012;-7.064;2022-09-21T06:47:15;6.20;;;2.53;;
60239;SDS011;46102;39.012;-7.064;2022-09-21T06:49:16;5.90;;;2.55;;
60239;SDS011;46102;39.012;-7.064;2022-09-21T06:51:16;3.67;;;3.10;;
60239;SDS011;46102;39.012;-7.064;2022-09-21T06:53:20;4.10;;;2.72;;
60239;SDS011;46102;39.012;-7.064;2022-09-21T06:55:20;5.85;;;3.00;;
60239;SDS011;46102;39.012;-7.064;2022-09-21T06:57:21;5.80;;;3.00;;
60239;SDS011;46102;39.012;-7.064;2022-09-21T06:59:23;10.10;;;3.55;;
60239;SDS011;46102;39.012;-7.064;2022-09-21T07:01:24;6.53;;;3.42;;
60239;SDS011;46102;39.012;-7.064;2022-09-21T07:03:25;15.50;;;5.88;;
60239;SDS011;46102;39.012;-7.064;2022-09-21T07:05:26;14.30;;;6.80;;
60239;SDS011;46102;39.012;-7.064;2022-09-21T07:07:27;14.90;;;6.50;;
60239;SDS011;46102;39.012;-7.064;2022-09-21T07:09:31;15.75;;;5.75;;
60239;SDS011;46102;39.012;-7.064;2022-09-21T07:11:32;7.00;;;5.25;;
60239;SDS011;46102;39.012;-7.064;2022-09-21T07:13:33;8.10;;;5.05;;
60239;SDS011;46102;39.012;-7.064;2022-09-21T07:15:34;9.23;;;5.40;;
60239;SDS011;46102;39.012;-7.064;2022-09-21T07:17:36;7.13;;;4.40;;
60239;SDS011;46102;39.012;-7.064;2022-09-21T07:19:38;6.43;;;4.72;;
60239;SDS011;46102;39.012;-7.064;2022-09-21T07:21:39;8.18;;;5.00;;
60239;SDS011;46102;39.012;-7.064;2022-09-21T07:23:40;5.47;;;4.03;;
60239;SDS011;46102;39.012;-7.064;2022-09-21T07:25:41;6.57;;;4.28;;
60239;SDS011;46102;39.012;-7.064;2022-09-21T07:27:43;5.30;;;3.78;;
60239;SDS011;46102;39.012;-7.064;2022-09-21T07:29:44;6.80;;;4.43;;
60239;SDS011;46102;39.012;-7.064;2022-09-21T07:31:44;4.55;;;3.67;;
60239;SDS011;46102;39.012;-7.064;2022-09-21T07:33:46;8.02;;;3.80;;
60239;SDS011;46102;39.012;-7.064;2022-09-21T07:35:50;4.35;;;3.35;;
60239;SDS011;46102;39.012;-7.064;2022-09-21T07:37:59;6.32;;;3.63;;
60239;SDS011;46102;39.012;-7.064;2022-09-21T07:40:02;3.65;;;3.35;;
60239;SDS011;46102;39.012;-7.064;2022-09-21T07:42:05;6.32;;;3.00;;
60239;SDS011;46102;39.012;-7.064;2022-09-21T07:44:07;8.13;;;3.15;;
60239;SDS011;46102;39.012;-7.064;2022-09-21T07:46:12;4.68;;;4.22;;
60239;SDS011;46102;39.012;-7.064;2022-09-21T07:48:13;3.88;;;2.70;;
60239;SDS011;46102;39.012;-7.064;2022-09-21T07:50:14;3.47;;;3.00;;
60239;SDS011;46102;39.012;-7.064;2022-09-21T07:52:15;4.38;;;2.28;;
60239;SDS011;46102;39.012;-7.064;2022-09-21T07:54:17;2.63;;;2.42;;
60239;SDS011;46102;39.012;-7.064;2022-09-21T07:56:18;6.40;;;3.00;;
60239;SDS011;46102;39.012;-7.064;2022-09-21T07:58:19;6.13;;;2.90;;
60239;SDS011;46102;39.012;-7.064;2022-09-21T08:00:39;5.28;;;2.50;;
60239;SDS011;46102;39.012;-7.064;2022-09-21T08:02:40;4.45;;;2.70;;
60239;SDS011;46102;39.012;-7.064;2022-09-21T08:04:41;4.82;;;2.75;;
60239;SDS011;46102;39.012;-7.064;2022-09-21T08:06:42;4.03;;;2.47;;
60239;SDS011;46102;39.012;-7.064;2022-09-21T08:08:43;7.90;;;2.80;;
60239;SDS011;46102;39.012;-7.064;2022-09-21T08:10:44;4.07;;;2.60;;
60239;SDS011;46102;39.012;-7.064;2022-09-21T08:12:45;6.43;;;2.50;;
60239;SDS011;46102;39.012;-7.064;2022-09-21T08:14:46;2.83;;;2.45;;
60239;SDS011;46102;39.012;-7.064;2022-09-21T08:16:47;2.53;;;2.35;;
60239;SDS011;46102;39.012;-7.064;2022-09-21T08:18:48;5.97;;;2.67;;
60239;SDS011;46102;39.012;-7.064;2022-09-21T08:20:53;8.88;;;2.58;;
60239;SDS011;46102;39.012;-7.064;2022-09-21T08:22:55;2.85;;;2.05;;
60239;SDS011;46102;39.012;-7.064;2022-09-21T08:24:56;7.15;;;1.77;;
60239;SDS011;46102;39.012;-7.064;2022-09-21T08:26:57;4.28;;;1.77;;
60239;SDS011;46102;39.012;-7.064;2022-09-21T08:28:59;3.95;;;1.85;;
60239;SDS011;46102;39.012;-7.064;2022-09-21T08:31:00;2.75;;;1.67;;
60239;SDS011;46102;39.012;-7.064;2022-09-21T08:33:02;1.60;;;1.25;;
60239;SDS011;46102;39.012;-7.064;2022-09-21T08:35:03;13.40;;;2.28;;
60239;SDS011;46102;39.012;-7.064;2022-09-21T08:37:04;4.00;;;1.40;;
60239;SDS011;46102;39.012;-7.064;2022-09-21T08:39:06;1.73;;;1.52;;
60239;SDS011;46102;39.012;-7.064;2022-09-21T08:43:29;1.50;;;1.30;;
60239;SDS011;46102;39.012;-7.064;2022-09-21T08:45:40;1.30;;;1.20;;
60239;SDS011;46102;39.012;-7.064;2022-09-21T08:47:44;2.30;;;1.35;;
60239;SDS011;46102;39.012;-7.064;2022-09-21T08:49:50;4.22;;;1.38;;
60239;SDS011;46102;39.012;-7.064;2022-09-21T08:52:10;1.38;;;1.27;;
60239;SDS011;46102;39.012;-7.064;2022-09-21T08:54:14;1.30;;;1.20;;
60239;SDS011;46102;39.012;-7.064;2022-09-21T08:56:25;1.17;;;0.93;;
60239;SDS011;46102;39.012;-7.064;2022-09-21T08:58:28;2.65;;;2.03;;
60239;SDS011;46102;39.012;-7.064;2022-09-21T09:00:32;1.23;;;1.02;;
60239;SDS011;46102;39.012;-7.064;2022-09-21T09:16:06;4.35;;;1.00;;
60239;SDS011;46102;39.012;-7.064;2022-09-21T09:20:13;3.78;;;1.33;;
60239;SDS011;46102;39.012;-7.064;2022-09-21T09:22:22;3.03;;;1.88;;
60239;SDS011;46102;39.012;-7.064;2022-09-21T09:26:42;1.20;;;1.10;;
60239;SDS011;46102;39.012;-7.064;2022-09-21T09:29:02;1.15;;;1.00;;
60239;SDS011;46102;39.012;-7.064;2022-09-21T09:31:17;1.55;;;1.20;;
60239;SDS011;46102;39.012;-7.064;2022-09-21T09:33:40;2.25;;;1.20;;
60239;SDS011;46102;39.012;-7.064;2022-09-21T09:35:50;2.70;;;1.00;;
60239;SDS011;46102;39.012;-7.064;2022-09-21T09:38:01;1.30;;;1.20;;
60239;SDS011;46102;39.012;-7.064;2022-09-21T09:40:32;1.13;;;0.88;;
60239;SDS011;46102;39.012;-7.064;2022-09-21T09:45:01;1.10;;;1.10;;
60239;SDS011;46102;39.012;-7.064;2022-09-21T09:47:42;1.35;;;1.25;;
60239;SDS011;46102;39.012;-7.064;2022-09-21T09:49:57;2.88;;;1.30;;
60239;SDS011;46102;39.012;-7.064;2022-09-21T09:52:03;1.35;;;0.90;;
60239;SDS011;46102;39.012;-7.064;2022-09-21T09:54:07;1.27;;;1.17;;
60239;SDS011;46102;39.012;-7.064;2022-09-21T09:56:13;4.65;;;1.20;;
60239;SDS011;46102;39.012;-7.064;2022-09-21T09:58:21;1.00;;;0.88;;
60239;SDS011;46102;39.012;-7.064;2022-09-21T10:00:25;2.55;;;1.20;;
60239;SDS011;46102;39.012;-7.064;2022-09-21T10:02:26;3.00;;;1.10;;
60239;SDS011;46102;39.012;-7.064;2022-09-21T10:04:28;1.17;;;1.10;;
60239;SDS011;46102;39.012;-7.064;2022-09-21T10:06:30;2.60;;;1.42;;
60239;SDS011;46102;39.012;-7.064;2022-09-21T10:08:39;3.03;;;1.33;;
60239;SDS011;46102;39.012;-7.064;2022-09-21T10:10:42;1.42;;;1.05;;
60239;SDS011;46102;39.012;-7.064;2022-09-21T10:12:45;3.90;;;1.40;;
60239;SDS011;46102;39.012;-7.064;2022-09-21T10:14:47;3.60;;;1.30;;
60239;SDS011;46102;39.012;-7.064;2022-09-21T10:16:50;2.83;;;1.25;;
60239;SDS011;46102;39.012;-7.064;2022-09-21T10:21:02;2.95;;;1.48;;
60239;SDS011;46102;39.012;-7.064;2022-09-21T10:23:03;2.78;;;1.20;;
60239;SDS011;46102;39.012;-7.064;2022-09-21T10:25:04;2.15;;;1.48;;
60239;SDS011;46102;39.012;-7.064;2022-09-21T10:27:14;6.05;;;2.08;;
60239;SDS011;46102;39.012;-7.064;2022-09-21T10:29:17;2.50;;;1.30;;
60239;SDS011;46102;39.012;-7.064;2022-09-21T10:31:28;1.35;;;1.25;;
60239;SDS011;46102;39.012;-7.064;2022-09-21T10:33:30;1.55;;;1.33;;
60239;SDS011;46102;39.012;-7.064;2022-09-21T10:35:30;3.63;;;1.38;;
60239;SDS011;46102;39.012;-7.064;2022-09-21T10:37:47;6.80;;;1.40;;
60239;SDS011;46102;39.012;-7.064;2022-09-21T10:39:53;1.95;;;1.20;;
60239;SDS011;46102;39.012;-7.064;2022-09-21T10:44:15;3.92;;;1.65;;
60239;SDS011;46102;39.012;-7.064;2022-09-21T10:46:27;2.65;;;1.60;;
60239;SDS011;46102;39.012;-7.064;2022-09-21T10:48:33;3.13;;;1.38;;
60239;SDS011;46102;39.012;-7.064;2022-09-21T10:50:35;3.47;;;1.92;;
60239;SDS011;46102;39.012;-7.064;2022-09-21T10:52:44;3.63;;;1.25;;
60239;SDS011;46102;39.012;-7.064;2022-09-21T10:54:46;2.75;;;1.52;;
60239;SDS011;46102;39.012;-7.064;2022-09-21T10:56:52;4.35;;;1.92;;
60239;SDS011;46102;39.012;-7.064;2022-09-21T11:01:27;3.95;;;2.22;;
60239;SDS011;46102;39.012;-7.064;2022-09-21T11:05:32;2.95;;;1.88;;
60239;SDS011;46102;39.012;-7.064;2022-09-21T11:07:40;3.25;;;1.83;;
60239;SDS011;46102;39.012;-7.064;2022-09-21T11:17:29;2.47;;;1.50;;
60239;SDS011;46102;39.012;-7.064;2022-09-21T11:19:43;3.92;;;1.63;;
60239;SDS011;46102;39.012;-7.064;2022-09-21T11:22:05;6.40;;;1.40;;
60239;SDS011;46102;39.012;-7.064;2022-09-21T11:24:31;2.83;;;1.50;;
60239;SDS011;46102;39.012;-7.064;2022-09-21T11:26:55;1.70;;;1.60;;
60239;SDS011;46102;39.012;-7.064;2022-09-21T11:29:07;2.10;;;1.67;;
60239;SDS011;46102;39.012;-7.064;2022-09-21T11:31:36;3.08;;;1.40;;
60239;SDS011;46102;39.012;-7.064;2022-09-21T11:38:12;2.15;;;1.48;;
60239;SDS011;46102;39.012;-7.064;2022-09-21T11:40:34;2.45;;;1.70;;
60239;SDS011;46102;39.012;-7.064;2022-09-21T11:43:08;2.03;;;1.83;;
60239;SDS011;46102;39.012;-7.064;2022-09-21T12:10:35;6.85;;;1.40;;
60239;SDS011;46102;39.012;-7.064;2022-09-21T12:12:48;5.07;;;1.90;;
60239;SDS011;46102;39.012;-7.064;2022-09-21T12:15:03;2.28;;;1.15;;
60239;SDS011;46102;39.012;-7.064;2022-09-21T12:21:34;7.53;;;1.58;;
60239;SDS011;46102;39.012;-7.064;2022-09-21T12:25:51;2.92;;;1.20;;
60239;SDS011;46102;39.012;-7.064;2022-09-21T12:27:59;3.45;;;1.70;;
60239;SDS011;46102;39.012;-7.064;2022-09-21T12:30:14;1.50;;;1.23;;
60239;SDS011;46102;39.012;-7.064;2022-09-21T12:34:56;1.77;;;1.10;;
60239;SDS011;46102;39.012;-7.064;2022-09-21T12:39:27;1.55;;;1.45;;
60239;SDS011;46102;39.012;-7.064;2022-09-21T12:46:08;1.35;;;1.20;;
60239;SDS011;46102;39.012;-7.064;2022-09-21T12:52:44;2.97;;;1.45;;
60239;SDS011;46102;39.012;-7.064;2022-09-21T12:54:48;1.67;;;1.45;;
60239;SDS011;46102;39.012;-7.064;2022-09-21T12:57:14;3.50;;;1.40;;
60239;SDS011;46102;39.012;-7.064;2022-09-21T12:59:32;2.33;;;1.65;;
60239;SDS011;46102;39.012;-7.064;2022-09-21T13:02:02;2.70;;;1.52;;
60239;SDS011;46102;39.012;-7.064;2022-09-21T13:08:38;5.10;;;1.40;;
60239;SDS011;46102;39.012;-7.064;2022-09-21T13:10:47;5.30;;;1.40;;
60239;SDS011;46102;39.012;-7.064;2022-09-21T13:12:56;4.03;;;1.23;;
60239;SDS011;46102;39.012;-7.064;2022-09-21T13:15:02;2.25;;;1.75;;
60239;SDS011;46102;39.012;-7.064;2022-09-21T13:17:24;6.65;;;1.35;;
60239;SDS011;46102;39.012;-7.064;2022-09-21T13:19:30;2.97;;;1.88;;
60239;SDS011;46102;39.012;-7.064;2022-09-21T13:21:33;3.85;;;1.25;;
60239;SDS011;46102;39.012;-7.064;2022-09-21T13:23:35;3.00;;;1.20;;
60239;SDS011;46102;39.012;-7.064;2022-09-21T13:25:41;2.85;;;1.20;;
60239;SDS011;46102;39.012;-7.064;2022-09-21T13:32:29;2.70;;;1.23;;
60239;SDS011;46102;39.012;-7.064;2022-09-21T13:34:50;1.25;;;1.13;;
60239;SDS011;46102;39.012;-7.064;2022-09-21T13:39:12;1.17;;;1.00;;
60239;SDS011;46102;39.012;-7.064;2022-09-21T13:43:17;2.42;;;1.15;;
60239;SDS011;46102;39.012;-7.064;2022-09-21T13:49:30;1.38;;;1.23;;
60239;SDS011;46102;39.012;-7.064;2022-09-21T13:54:04;1.70;;;1.50;;
60239;SDS011;46102;39.012;-7.064;2022-09-21T13:56:15;1.17;;;1.10;;
60239;SDS011;46102;39.012;-7.064;2022-09-21T14:00:27;2.05;;;1.50;;
60239;SDS011;46102;39.012;-7.064;2022-09-21T14:02:37;4.35;;;1.73;;
60239;SDS011;46102;39.012;-7.064;2022-09-21T14:04:43;1.80;;;1.50;;
60239;SDS011;46102;39.012;-7.064;2022-09-21T14:06:48;2.97;;;1.23;;
60239;SDS011;46102;39.012;-7.064;2022-09-21T14:08:54;3.20;;;1.10;;
60239;SDS011;46102;39.012;-7.064;2022-09-21T14:11:06;1.88;;;1.17;;
60239;SDS011;46102;39.012;-7.064;2022-09-21T14:13:21;1.27;;;1.17;;
60239;SDS011;46102;39.012;-7.064;2022-09-21T14:15:32;2.05;;;1.45;;
60239;SDS011;46102;39.012;-7.064;2022-09-21T14:17:36;1.27;;;1.05;;
60239;SDS011;46102;39.012;-7.064;2022-09-21T14:26:20;3.17;;;1.88;;
60239;SDS011;46102;39.012;-7.064;2022-09-21T14:28:44;11.23;;;2.15;;
60239;SDS011;46102;39.012;-7.064;2022-09-21T14:30:54;3.13;;;1.33;;
60239;SDS011;46102;39.012;-7.064;2022-09-21T14:33:04;2.85;;;1.38;;
60239;SDS011;46102;39.012;-7.064;2022-09-21T14:35:11;3.13;;;1.58;;
60239;SDS011;46102;39.012;-7.064;2022-09-21T14:39:29;1.40;;;1.30;;
60239;SDS011;46102;39.012;-7.064;2022-09-21T14:41:38;1.30;;;1.20;;
60239;SDS011;46102;39.012;-7.064;2022-09-21T14:43:41;1.90;;;1.10;;
60239;SDS011;46102;39.012;-7.064;2022-09-21T14:45:57;4.50;;;1.48;;
60239;SDS011;46102;39.012;-7.064;2022-09-21T14:48:22;2.53;;;1.13;;
60239;SDS011;46102;39.012;-7.064;2022-09-21T14:50:39;2.47;;;1.10;;
60239;SDS011;46102;39.012;-7.064;2022-09-21T14:57:42;1.08;;;0.98;;
60239;SDS011;46102;39.012;-7.064;2022-09-21T15:00:22;3.20;;;1.38;;
60239;SDS011;46102;39.012;-7.064;2022-09-21T15:02:34;3.85;;;1.30;;
60239;SDS011;46102;39.012;-7.064;2022-09-21T15:06:38;1.38;;;1.27;;
60239;SDS011;46102;39.012;-7.064;2022-09-21T15:11:46;2.83;;;1.60;;
60239;SDS011;46102;39.012;-7.064;2022-09-21T15:14:14;3.20;;;1.40;;